GYRII EGKR-EGTF

Flight info

Callsign GYRII
Flight time N/A
Altitude 2000
Route EGKR DCT EGTF
Aircraft DA40/L-SDG/L

Departure

Time 2026-04-26 15:21
Airport Redhill Aerodrome (EGKR)

Arrival

Time N/A
Airport Fairoaks Airport (EGTF)
Time Latitude Longitude Altitude Speed Heading
2026-04-26 15:08 51.21335 -0.13025 208 ft 0 kts 239°
2026-04-26 15:10 51.21334 -0.13026 208 ft 0 kts 239°
2026-04-26 15:11 51.21333 -0.13029 208 ft 0 kts 239°
2026-04-26 15:15 51.21330 -0.13039 208 ft 8 kts 238°
2026-04-26 15:15 51.21265 -0.13225 209 ft 15 kts 242°
2026-04-26 15:15 51.21207 -0.13389 208 ft 23 kts 244°
2026-04-26 15:15 51.21174 -0.13641 214 ft 30 kts 254°
2026-04-26 15:16 51.21132 -0.13877 213 ft 25 kts 254°
2026-04-26 15:16 51.21091 -0.14127 208 ft 26 kts 256°
2026-04-26 15:16 51.21046 -0.14349 208 ft 16 kts 259°
2026-04-26 15:16 51.21094 -0.14396 215 ft 12 kts
2026-04-26 15:17 51.21182 -0.14380 208 ft 4 kts 354°
2026-04-26 15:17 51.21214 -0.14387 208 ft 11 kts 354°
2026-04-26 15:17 51.21238 -0.14390 206 ft 0 kts
2026-04-26 15:19 51.21267 -0.14456 205 ft 18 kts 285°
2026-04-26 15:19 51.21230 -0.14504 207 ft 12 kts 49°
2026-04-26 15:19 51.21273 -0.14366 207 ft 8 kts 73°
2026-04-26 15:20 51.21274 -0.14358 206 ft 0 kts 73°
2026-04-26 15:20 51.21291 -0.14257 204 ft 39 kts 76°
2026-04-26 15:20 51.21405 -0.13583 405 ft 64 kts 74°
2026-04-26 15:21 51.21530 -0.12910 737 ft 69 kts 69°
2026-04-26 15:21 51.21766 -0.12118 949 ft 82 kts 49°
2026-04-26 15:21 51.22277 -0.11935 1347 ft 79 kts 345°
2026-04-26 15:21 51.22652 -0.12612 1617 ft 90 kts 299°
2026-04-26 15:22 51.22881 -0.13623 1864 ft 100 kts 289°
2026-04-26 15:22 51.23131 -0.14637 2205 ft 98 kts 297°
2026-04-26 15:22 51.23398 -0.15641 2505 ft 98 kts 297°
2026-04-26 15:22 51.23665 -0.16648 2814 ft 98 kts 296°
2026-04-26 15:23 51.23949 -0.17705 3002 ft 115 kts 297°
2026-04-26 15:23 51.24303 -0.18972 3007 ft 133 kts 297°
2026-04-26 15:23 51.24689 -0.20364 3013 ft 141 kts 297°
2026-04-26 15:23 51.25093 -0.21815 3012 ft 144 kts 297°
2026-04-26 15:24 51.25507 -0.23288 3003 ft 145 kts 296°
2026-04-26 15:24 51.25936 -0.24752 3010 ft 145 kts 297°
2026-04-26 15:24 51.26351 -0.26229 3011 ft 148 kts 296°
2026-04-26 15:24 51.26774 -0.27707 2997 ft 147 kts 296°
2026-04-26 15:25 51.27189 -0.29177 2998 ft 145 kts 298°
2026-04-26 15:25 51.27477 -0.30171 2999 ft 146 kts 297°
2026-04-26 15:25 51.28045 -0.32147 3001 ft 149 kts 297°
2026-04-26 15:25 51.28473 -0.33647 3001 ft 148 kts 296°
2026-04-26 15:26 51.28902 -0.35143 3004 ft 148 kts 297°
2026-04-26 15:26 51.29249 -0.36657 2997 ft 144 kts 284°
2026-04-26 15:26 51.29593 -0.38147 2993 ft 144 kts 297°
2026-04-26 15:26 51.30005 -0.39615 2994 ft 145 kts 297°
2026-04-26 15:27 51.30425 -0.41104 3000 ft 148 kts 296°
2026-04-26 15:27 51.30843 -0.42607 2987 ft 146 kts 296°
2026-04-26 15:27 51.31226 -0.44003 2828 ft 135 kts 297°
2026-04-26 15:27 51.31611 -0.45387 2589 ft 135 kts 297°
2026-04-26 15:28 51.31984 -0.46731 2367 ft 134 kts 297°
2026-04-26 15:28 51.32361 -0.48115 2133 ft 134 kts 296°
2026-04-26 15:28 51.32718 -0.49483 1880 ft 133 kts 297°
2026-04-26 15:28 51.33084 -0.50817 1691 ft 132 kts 297°
2026-04-26 15:29 51.33446 -0.52161 1464 ft 132 kts 297°
2026-04-26 15:29 51.33649 -0.53585 1379 ft 129 kts 263°
2026-04-26 15:29 51.32773 -0.56002 1146 ft 124 kts 234°
2026-04-26 15:30 51.33064 -0.58001 851 ft 94 kts 324°
2026-04-26 15:30 51.33624 -0.58338 658 ft 84 kts
2026-04-26 15:30 51.34068 -0.57885 464 ft 76 kts 58°
2026-04-26 15:31 51.34290 -0.57166 338 ft 73 kts 59°
2026-04-26 15:31 51.34830 -0.55795 81 ft 66 kts 57°